AXY583 LFLX-TBPB
Flight info
| Callsign | AXY583 |
|---|---|
| Flight time | N/A |
| Altitude | 39000 |
| Route | SOPIL DCT GALOF DCT INCEF DCT SOSOV DCT BERUX DCT KOPAS/M080F390 DCT 41N019W 38N026W 35N032W 32N037W 28N042W 25N047W 21N051W/N0458F390 17N055W |
| Aircraft | A343/H-SDE2E3FGHIJ4J5M1RWXY/LB1D1 |
Departure
| Time | N/A |
|---|---|
| Airport | Châteauroux Déols airport (LFLX) |
Arrival
| Time | 2026-04-30 08:09 |
|---|---|
| Airport | Grantley Adams International Airport (TBPB) |
| Time | Latitude | Longitude | Altitude | Speed | Heading |
|---|---|---|---|---|---|
| 2026-04-30 07:30 | 15.27616 | -57.06970 | 38954 ft | 436 kts | 236° |
| 2026-04-30 07:30 | 15.25617 | -57.09337 | 38954 ft | 436 kts | 236° |
| 2026-04-30 07:31 | 15.21621 | -57.14063 | 38951 ft | 435 kts | 236° |
| 2026-04-30 07:31 | 15.17636 | -57.18774 | 38951 ft | 434 kts | 236° |
| 2026-04-30 07:32 | 15.13653 | -57.23480 | 38956 ft | 436 kts | 236° |
| 2026-04-30 07:32 | 15.09612 | -57.28259 | 38954 ft | 446 kts | 235° |
| 2026-04-30 07:33 | 15.05509 | -57.33102 | 38953 ft | 455 kts | 235° |
| 2026-04-30 07:33 | 15.01300 | -57.38066 | 38951 ft | 462 kts | 235° |
| 2026-04-30 07:34 | 14.97070 | -57.43046 | 38952 ft | 460 kts | 235° |
| 2026-04-30 07:34 | 14.92854 | -57.48010 | 38953 ft | 458 kts | 235° |
| 2026-04-30 07:35 | 14.88653 | -57.52956 | 38955 ft | 458 kts | 235° |
| 2026-04-30 07:35 | 14.84446 | -57.57904 | 38952 ft | 458 kts | 235° |
| 2026-04-30 07:36 | 14.80239 | -57.62850 | 38947 ft | 458 kts | 235° |
| 2026-04-30 07:36 | 14.76048 | -57.67774 | 38949 ft | 459 kts | 235° |
| 2026-04-30 07:37 | 14.71826 | -57.72729 | 38950 ft | 459 kts | 235° |
| 2026-04-30 07:37 | 14.67601 | -57.77686 | 38950 ft | 459 kts | 235° |
| 2026-04-30 07:38 | 14.63375 | -57.82640 | 38949 ft | 459 kts | 235° |
| 2026-04-30 07:38 | 14.59150 | -57.87592 | 38949 ft | 459 kts | 235° |
| 2026-04-30 07:39 | 14.54924 | -57.92541 | 38945 ft | 459 kts | 235° |
| 2026-04-30 07:39 | 14.50687 | -57.97500 | 38947 ft | 461 kts | 235° |
| 2026-04-30 07:40 | 14.46468 | -58.02435 | 38947 ft | 461 kts | 235° |
| 2026-04-30 07:40 | 14.42220 | -58.07399 | 38944 ft | 461 kts | 235° |
| 2026-04-30 07:41 | 14.37965 | -58.12369 | 38945 ft | 461 kts | 235° |
| 2026-04-30 07:41 | 14.33720 | -58.17325 | 38947 ft | 461 kts | 235° |
| 2026-04-30 07:42 | 14.29470 | -58.22283 | 38941 ft | 461 kts | 235° |
| 2026-04-30 07:42 | 14.25217 | -58.27240 | 38944 ft | 462 kts | 235° |
| 2026-04-30 07:43 | 14.20964 | -58.32194 | 38942 ft | 462 kts | 235° |
| 2026-04-30 07:43 | 14.16730 | -58.37123 | 38944 ft | 462 kts | 235° |
| 2026-04-30 07:44 | 14.12465 | -58.42084 | 38944 ft | 462 kts | 235° |
| 2026-04-30 07:44 | 14.10342 | -58.44550 | 38668 ft | 456 kts | 235° |
| 2026-04-30 07:44 | 14.08254 | -58.46972 | 37573 ft | 449 kts | 234° |
| 2026-04-30 07:44 | 14.06194 | -58.49365 | 36121 ft | 445 kts | 233° |
| 2026-04-30 07:45 | 14.04142 | -58.51750 | 34605 ft | 444 kts | 232° |
| 2026-04-30 07:45 | 14.02090 | -58.54138 | 32945 ft | 446 kts | 231° |
| 2026-04-30 07:45 | 14.00055 | -58.56500 | 32039 ft | 431 kts | 231° |
| 2026-04-30 07:45 | 13.98072 | -58.58802 | 31423 ft | 433 kts | 230° |
| 2026-04-30 07:46 | 13.96073 | -58.61125 | 30931 ft | 433 kts | 230° |
| 2026-04-30 07:46 | 13.94081 | -58.63436 | 30424 ft | 430 kts | 229° |
| 2026-04-30 07:46 | 13.92097 | -58.65738 | 29908 ft | 428 kts | 229° |
| 2026-04-30 07:46 | 13.90126 | -58.68024 | 29346 ft | 426 kts | 229° |
| 2026-04-30 07:47 | 13.88168 | -58.70294 | 28815 ft | 423 kts | 229° |
| 2026-04-30 07:47 | 13.86223 | -58.72549 | 28273 ft | 420 kts | 229° |
| 2026-04-30 07:47 | 13.84286 | -58.74793 | 27747 ft | 417 kts | 229° |
| 2026-04-30 07:47 | 13.82364 | -58.77020 | 27216 ft | 415 kts | 229° |
| 2026-04-30 07:48 | 13.80452 | -58.79235 | 26708 ft | 413 kts | 228° |
| 2026-04-30 07:48 | 13.78551 | -58.81436 | 26162 ft | 411 kts | 228° |
| 2026-04-30 07:48 | 13.76677 | -58.83606 | 25620 ft | 410 kts | 228° |
| 2026-04-30 07:48 | 13.74762 | -58.85823 | 25089 ft | 408 kts | 228° |
| 2026-04-30 07:49 | 13.72906 | -58.87970 | 24555 ft | 407 kts | 227° |
| 2026-04-30 07:49 | 13.71018 | -58.90154 | 24008 ft | 406 kts | 227° |
| 2026-04-30 07:49 | 13.69144 | -58.92321 | 23453 ft | 406 kts | 227° |
| 2026-04-30 07:49 | 13.67269 | -58.94488 | 22855 ft | 404 kts | 227° |
| 2026-04-30 07:50 | 13.65404 | -58.96644 | 22308 ft | 401 kts | 227° |
| 2026-04-30 07:50 | 13.63553 | -58.98783 | 21776 ft | 399 kts | 227° |
| 2026-04-30 07:50 | 13.61714 | -59.00908 | 21213 ft | 397 kts | 227° |
| 2026-04-30 07:50 | 13.59882 | -59.03024 | 20679 ft | 395 kts | 227° |
| 2026-04-30 07:51 | 13.58057 | -59.05132 | 20135 ft | 394 kts | 227° |
| 2026-04-30 07:51 | 13.56240 | -59.07228 | 19596 ft | 392 kts | 227° |
| 2026-04-30 07:51 | 13.54423 | -59.09325 | 19052 ft | 391 kts | 227° |
| 2026-04-30 07:51 | 13.52613 | -59.11413 | 18510 ft | 391 kts | 227° |
| 2026-04-30 07:52 | 13.50829 | -59.13471 | 17927 ft | 390 kts | 227° |
| 2026-04-30 07:52 | 13.49025 | -59.15552 | 17337 ft | 389 kts | 226° |
| 2026-04-30 07:52 | 13.47207 | -59.17647 | 16788 ft | 387 kts | 227° |
| 2026-04-30 07:52 | 13.45449 | -59.19675 | 16222 ft | 386 kts | 226° |
| 2026-04-30 07:53 | 13.43641 | -59.21758 | 15665 ft | 385 kts | 226° |
| 2026-04-30 07:53 | 13.41882 | -59.23782 | 15113 ft | 384 kts | 227° |
| 2026-04-30 07:53 | 13.40102 | -59.25830 | 14526 ft | 384 kts | 226° |
| 2026-04-30 07:53 | 13.38323 | -59.27878 | 13955 ft | 385 kts | 226° |
| 2026-04-30 07:54 | 13.36540 | -59.29930 | 13336 ft | 385 kts | 227° |
| 2026-04-30 07:54 | 13.34758 | -59.31980 | 12751 ft | 383 kts | 227° |
| 2026-04-30 07:54 | 13.32990 | -59.34015 | 12176 ft | 381 kts | 227° |
| 2026-04-30 07:54 | 13.31228 | -59.36042 | 11606 ft | 379 kts | 227° |
| 2026-04-30 07:55 | 13.29481 | -59.38050 | 11054 ft | 376 kts | 227° |
| 2026-04-30 07:55 | 13.27745 | -59.40047 | 10480 ft | 374 kts | 227° |
| 2026-04-30 07:55 | 13.26033 | -59.42016 | 10240 ft | 362 kts | 227° |
| 2026-04-30 07:55 | 13.24390 | -59.43905 | 10139 ft | 347 kts | 227° |
| 2026-04-30 07:56 | 13.22813 | -59.45719 | 10004 ft | 334 kts | 227° |
| 2026-04-30 07:56 | 13.21294 | -59.47465 | 9885 ft | 322 kts | 226° |
| 2026-04-30 07:56 | 13.19823 | -59.49154 | 9722 ft | 312 kts | 227° |
| 2026-04-30 07:56 | 13.18392 | -59.50796 | 9471 ft | 306 kts | 227° |
| 2026-04-30 07:57 | 13.16980 | -59.52417 | 9118 ft | 304 kts | 227° |
| 2026-04-30 07:57 | 13.15580 | -59.54022 | 8840 ft | 300 kts | 227° |
| 2026-04-30 07:57 | 13.14196 | -59.55611 | 8526 ft | 297 kts | 227° |
| 2026-04-30 07:57 | 13.12826 | -59.57183 | 8186 ft | 295 kts | 227° |
| 2026-04-30 07:58 | 13.11465 | -59.58743 | 7750 ft | 291 kts | 227° |
| 2026-04-30 07:58 | 13.10130 | -59.60275 | 7009 ft | 285 kts | 228° |
| 2026-04-30 07:58 | 13.08815 | -59.61783 | 6214 ft | 281 kts | 228° |
| 2026-04-30 07:58 | 13.07540 | -59.63245 | 5636 ft | 276 kts | 228° |
| 2026-04-30 07:59 | 13.06257 | -59.64716 | 5219 ft | 278 kts | 229° |
| 2026-04-30 07:59 | 13.04967 | -59.66195 | 4830 ft | 279 kts | 229° |
| 2026-04-30 07:59 | 13.03672 | -59.67679 | 4424 ft | 280 kts | 229° |
| 2026-04-30 08:00 | 13.01112 | -59.70650 | 3805 ft | 279 kts | 235° |
| 2026-04-30 08:00 | 13.00084 | -59.72346 | 3518 ft | 281 kts | 238° |
| 2026-04-30 08:00 | 12.99105 | -59.74074 | 3234 ft | 280 kts | 241° |
| 2026-04-30 08:00 | 12.98504 | -59.75949 | 2936 ft | 278 kts | 261° |
| 2026-04-30 08:01 | 12.98392 | -59.77920 | 2650 ft | 277 kts | 275° |
| 2026-04-30 08:01 | 12.98902 | -59.79793 | 2501 ft | 273 kts | 300° |
| 2026-04-30 08:01 | 13.00170 | -59.81203 | 2491 ft | 270 kts | 331° |
| 2026-04-30 08:01 | 13.01924 | -59.81765 | 2496 ft | 264 kts | 1° |
| 2026-04-30 08:02 | 13.05001 | -59.80218 | 2489 ft | 252 kts | 58° |
| 2026-04-30 08:02 | 13.05620 | -59.78556 | 2494 ft | 250 kts | 81° |
| 2026-04-30 08:03 | 13.05040 | -59.75068 | 2494 ft | 252 kts | 105° |
| 2026-04-30 08:03 | 13.04316 | -59.71603 | 2487 ft | 238 kts | 97° |
| 2026-04-30 08:03 | 13.04143 | -59.69963 | 2486 ft | 225 kts | 94° |
| 2026-04-30 08:04 | 13.04089 | -59.68411 | 2483 ft | 211 kts | 89° |
| 2026-04-30 08:04 | 13.04151 | -59.66955 | 2484 ft | 199 kts | 85° |
| 2026-04-30 08:04 | 13.04323 | -59.65592 | 2473 ft | 187 kts | 81° |
| 2026-04-30 08:04 | 13.04514 | -59.64321 | 2483 ft | 174 kts | 84° |
| 2026-04-30 08:05 | 13.04576 | -59.63146 | 2505 ft | 156 kts | 89° |
| 2026-04-30 08:05 | 13.04578 | -59.62093 | 2449 ft | 146 kts | 88° |
| 2026-04-30 08:05 | 13.04645 | -59.61063 | 2202 ft | 143 kts | 84° |
| 2026-04-30 08:05 | 13.04803 | -59.60092 | 1986 ft | 132 kts | 75° |
| 2026-04-30 08:06 | 13.05050 | -59.59199 | 1671 ft | 128 kts | 76° |
| 2026-04-30 08:06 | 13.05259 | -59.58313 | 1458 ft | 128 kts | 77° |
| 2026-04-30 08:06 | 13.05478 | -59.57425 | 1268 ft | 128 kts | 76° |
| 2026-04-30 08:06 | 13.05694 | -59.56541 | 1126 ft | 127 kts | 77° |
| 2026-04-30 08:07 | 13.05913 | -59.55654 | 988 ft | 129 kts | 77° |
| 2026-04-30 08:07 | 13.06122 | -59.54769 | 865 ft | 129 kts | 75° |
| 2026-04-30 08:07 | 13.06347 | -59.53874 | 719 ft | 129 kts | 78° |
| 2026-04-30 08:07 | 13.06552 | -59.52979 | 638 ft | 130 kts | 79° |
| 2026-04-30 08:08 | 13.06761 | -59.52090 | 476 ft | 127 kts | 78° |
| 2026-04-30 08:08 | 13.06976 | -59.51222 | 292 ft | 125 kts | 78° |
| 2026-04-30 08:08 | 13.07180 | -59.50355 | 181 ft | 120 kts | 77° |
| 2026-04-30 08:08 | 13.07355 | -59.49652 | 175 ft | 85 kts | 76° |
| 2026-04-30 08:09 | 13.07456 | -59.49243 | 174 ft | 46 kts | 76° |
| 2026-04-30 08:09 | 13.07528 | -59.48950 | 173 ft | 39 kts | 76° |
| 2026-04-30 08:09 | 13.07588 | -59.48700 | 173 ft | 35 kts | 76° |
| 2026-04-30 08:09 | 13.07642 | -59.48480 | 171 ft | 28 kts | 74° |
| 2026-04-30 08:10 | 13.07684 | -59.48354 | 170 ft | 12 kts | 44° |
| 2026-04-30 08:10 | 13.07764 | -59.48351 | 170 ft | 12 kts | 346° |
| 2026-04-30 08:10 | 13.07846 | -59.48365 | 171 ft | 11 kts | 11° |
| 2026-04-30 08:10 | 13.07874 | -59.48329 | 171 ft | 6 kts | 69° |
| 2026-04-30 08:11 | 13.07888 | -59.48280 | 171 ft | 8 kts | 74° |
| 2026-04-30 08:11 | 13.07905 | -59.48215 | 171 ft | 10 kts | 75° |
| 2026-04-30 08:11 | 13.07918 | -59.48157 | 171 ft | 4 kts | 78° |
| 2026-04-30 08:11 | 13.07926 | -59.48122 | 171 ft | 6 kts | 76° |
| 2026-04-30 08:12 | 13.07946 | -59.48078 | 171 ft | 7 kts | 41° |
| 2026-04-30 08:12 | 13.07974 | -59.48075 | 171 ft | 6 kts | 352° |
| 2026-04-30 08:12 | 13.08014 | -59.48088 | 171 ft | 3 kts | 344° |
| 2026-04-30 08:12 | 13.08025 | -59.48091 | 171 ft | 2 kts | 345° |
| 2026-04-30 08:13 | 13.08040 | -59.48095 | 171 ft | 1 kts | 346° |